Time;durP1;ratioP1;P1;durP2;ratioP2;P2;SDS_P1;SDS_P2;PMS_P1;PMS_P2;Temp;Humidity;BMP_temperature;BMP_pressure;BME280_temperature;BME280_humidity;BME280_pressure;Samples;Min_cycle;Max_cycle;Signal;HPM_P1;HPM_P2
2022/08/15 00:02:21;;;;;;;13.67;10.50;;;;;;;;;;5049483;28;20258;-72
2022/08/15 00:05:08;;;;;;;11.17;9.80;;;;;;;;;;5029768;28;20758;-72
2022/08/15 00:07:36;;;;;;;14.23;10.20;;;;;;;;;;5028768;28;20250;-72
2022/08/15 00:10:15;;;;;;;11.83;10.20;;;;;;;;;;5031173;28;20198;-72
2022/08/15 00:13:19;;;;;;;12.47;9.83;;;;;;;;;;5049376;28;20186;-72
2022/08/15 00:15:50;;;;;;;13.00;10.23;;;;;;;;;;5050275;28;20186;-72
2022/08/15 00:18:17;;;;;;;11.67;10.13;;;;;;;;;;5029728;28;20458;-72
2022/08/15 00:20:46;;;;;;;16.23;11.17;;;;;;;;;;5028814;28;20555;-72
2022/08/15 00:23:31;;;;;;;13.43;10.90;;;;;;;;;;5019288;28;20202;-72
2022/08/15 00:26:03;;;;;;;13.53;10.17;;;;;;;;;;5028963;28;20214;-72
2022/08/15 00:28:50;;;;;;;22.27;11.13;;;;;;;;;;5028924;28;20184;-71
2022/08/15 00:31:24;;;;;;;12.53;10.27;;;;;;;;;;5049332;28;20199;-72
2022/08/15 00:34:12;;;;;;;12.57;10.27;;;;;;;;;;5029788;28;20237;-72
2022/08/15 00:36:59;;;;;;;11.97;10.00;;;;;;;;;;5049638;28;20217;-72
2022/08/15 00:39:26;;;;;;;12.10;10.23;;;;;;;;;;5019760;28;20298;-72
2022/08/15 00:42:01;;;;;;;14.63;11.00;;;;;;;;;;5046062;28;20276;-72
2022/08/15 00:44:40;;;;;;;13.67;10.43;;;;;;;;;;5049697;28;20195;-72
2022/08/15 00:47:27;;;;;;;14.10;11.97;;;;;;;;;;5049214;28;20554;-72
2022/08/15 00:50:05;;;;;;;15.77;10.90;;;;;;;;;;5013899;28;20206;-72
2022/08/15 00:52:52;;;;;;;14.93;12.60;;;;;;;;;;5028192;28;20191;-72
2022/08/15 00:55:19;;;;;;;17.47;12.47;;;;;;;;;;5040572;28;20267;-72
2022/08/15 00:57:52;;;;;;;15.10;11.23;;;;;;;;;;5013097;28;20183;-72
2022/08/15 01:00:28;;;;;;;15.17;11.87;;;;;;;;;;5028296;28;20280;-72
2022/08/15 01:03:04;;;;;;;12.13;10.57;;;;;;;;;;5026518;28;20249;-72
2022/08/15 01:05:50;;;;;;;12.03;10.30;;;;;;;;;;5051206;28;20186;-72
2022/08/15 01:08:18;;;;;;;14.33;10.90;;;;;;;;;;5051419;28;20186;-72
2022/08/15 01:11:18;;;;;;;11.60;10.40;;;;;;;;;;5018670;28;20361;-72
2022/08/15 01:13:45;;;;;;;15.00;11.47;;;;;;;;;;5051576;28;20292;-72
2022/08/15 01:16:30;;;;;;;14.27;10.70;;;;;;;;;;5054046;28;20214;-72
2022/08/15 01:19:13;;;;;;;14.27;11.00;;;;;;;;;;5048262;28;20194;-72
2022/08/15 01:21:49;;;;;;;11.80;10.50;;;;;;;;;;5039056;28;20648;-72
2022/08/15 01:24:38;;;;;;;12.80;10.07;;;;;;;;;;5050870;28;20291;-72
2022/08/15 01:27:23;;;;;;;12.50;11.07;;;;;;;;;;5037006;28;20185;-72
2022/08/15 01:30:00;;;;;;;10.47;9.33;;;;;;;;;;5052410;28;20531;-72
2022/08/15 01:32:30;;;;;;;14.30;10.33;;;;;;;;;;5050859;28;20205;-72
2022/08/15 01:35:03;;;;;;;13.10;10.17;;;;;;;;;;5047067;28;20283;-72
2022/08/15 01:37:50;;;;;;;11.30;10.10;;;;;;;;;;5050960;28;20656;-72
2022/08/15 01:40:28;;;;;;;14.80;11.80;;;;;;;;;;5050585;28;20194;-72
2022/08/15 01:43:15;;;;;;;13.53;11.03;;;;;;;;;;5068534;28;20231;-72
2022/08/15 01:45:43;;;;;;;12.10;10.67;;;;;;;;;;5034678;28;20198;-72
2022/08/15 01:48:15;;;;;;;14.03;10.93;;;;;;;;;;5034162;28;20198;-72
2022/08/15 01:50:58;;;;;;;13.30;10.27;;;;;;;;;;5050782;28;20190;-72
2022/08/15 01:53:54;;;;;;;15.13;12.07;;;;;;;;;;5035615;28;20650;-73
2022/08/15 01:56:28;;;;;;;15.83;11.13;;;;;;;;;;5068617;28;20190;-72
2022/08/15 01:59:07;;;;;;;14.60;11.63;;;;;;;;;;5039202;28;20281;-72
2022/08/15 02:01:39;;;;;;;14.40;11.57;;;;;;;;;;5050367;28;20281;-72
2022/08/15 02:04:15;;;;;;;13.27;10.83;;;;;;;;;;5034933;28;20283;-72
2022/08/15 02:06:52;;;;;;;19.77;10.60;;;;;;;;;;5035846;28;20193;-72
2022/08/15 02:09:26;;;;;;;20.10;11.30;;;;;;;;;;5020153;28;20740;-72
2022/08/15 02:12:14;;;;;;;14.80;10.03;;;;;;;;;;5050479;28;20190;-72
2022/08/15 02:15:02;;;;;;;12.73;10.67;;;;;;;;;;5029747;28;21067;-72
2022/08/15 02:17:29;;;;;;;12.43;10.87;;;;;;;;;;5033825;28;20240;-72
2022/08/15 02:19:58;;;;;;;13.40;10.63;;;;;;;;;;5050266;28;20217;-72
2022/08/15 02:22:26;;;;;;;14.93;10.63;;;;;;;;;;5050914;28;20217;-72
2022/08/15 02:24:55;;;;;;;13.83;10.20;;;;;;;;;;5034278;28;21000;-72
2022/08/15 02:27:24;;;;;;;12.77;10.43;;;;;;;;;;5034483;28;20654;-72
2022/08/15 02:29:52;;;;;;;13.27;10.07;;;;;;;;;;5050256;28;20661;-72
2022/08/15 02:32:21;;;;;;;11.97;9.27;;;;;;;;;;5038812;28;20210;-72
2022/08/15 02:34:58;;;;;;;10.90;8.80;;;;;;;;;;5033721;28;20201;-72
2022/08/15 02:37:26;;;;;;;10.07;9.07;;;;;;;;;;5049095;28;20182;-72
2022/08/15 02:39:52;;;;;;;45.40;9.33;;;;;;;;;;5054436;28;20194;-72
2022/08/15 02:42:38;;;;;;;10.53;8.63;;;;;;;;;;5065723;28;20201;-73
2022/08/15 02:45:07;;;;;;;10.57;8.90;;;;;;;;;;5053856;28;20596;-72
2022/08/15 02:47:34;;;;;;;9.90;8.30;;;;;;;;;;5036979;28;20236;-72
2022/08/15 02:50:01;;;;;;;11.77;8.77;;;;;;;;;;5053550;28;20225;-72
2022/08/15 02:52:33;;;;;;;9.73;8.67;;;;;;;;;;5037788;28;20194;-71
2022/08/15 02:55:00;;;;;;;10.13;9.07;;;;;;;;;;5037260;28;20251;-72
2022/08/15 02:57:34;;;;;;;12.17;9.43;;;;;;;;;;5047718;28;20194;-72
2022/08/15 03:00:19;;;;;;;9.20;8.30;;;;;;;;;;5053137;28;20188;-72
2022/08/15 03:02:49;;;;;;;10.47;9.20;;;;;;;;;;5053403;28;20740;-72
2022/08/15 03:05:35;;;;;;;12.97;10.60;;;;;;;;;;5071229;28;20188;-72
2022/08/15 03:08:03;;;;;;;11.30;9.30;;;;;;;;;;5036990;28;20276;-72
2022/08/15 03:10:33;;;;;;;11.60;9.50;;;;;;;;;;5053796;28;20204;-72
2022/08/15 03:13:09;;;;;;;11.80;8.73;;;;;;;;;;5044384;28;20195;-72
2022/08/15 03:15:46;;;;;;;14.13;10.03;;;;;;;;;;5037156;28;20296;-72
2022/08/15 03:18:32;;;;;;;11.30;9.33;;;;;;;;;;5039412;28;20570;-72
2022/08/15 03:21:04;;;;;;;13.13;10.50;;;;;;;;;;5037437;28;20243;-72
2022/08/15 03:23:32;;;;;;;18.97;12.03;;;;;;;;;;5053303;28;20226;-71
2022/08/15 03:26:08;;;;;;;10.47;9.37;;;;;;;;;;5037972;28;20197;-72
2022/08/15 03:28:53;;;;;;;12.87;10.30;;;;;;;;;;5039327;28;20194;-72
2022/08/15 03:31:37;;;;;;;13.67;10.20;;;;;;;;;;5052914;28;20405;-72
2022/08/15 03:34:12;;;;;;;16.03;10.87;;;;;;;;;;5051736;28;20229;-72
2022/08/15 03:36:58;;;;;;;14.97;10.03;;;;;;;;;;5033522;28;20222;-72
2022/08/15 03:39:27;;;;;;;12.00;10.07;;;;;;;;;;5050118;28;20558;-72
2022/08/15 03:41:55;;;;;;;13.97;9.63;;;;;;;;;;5017029;28;20650;-72
2022/08/15 03:44:24;;;;;;;17.63;13.33;;;;;;;;;;5052685;28;20320;-72
2022/08/15 03:46:55;;;;;;;15.57;12.07;;;;;;;;;;5052535;28;20202;-72
2022/08/15 03:49:23;;;;;;;9.83;8.80;;;;;;;;;;5035263;28;20228;-72
2022/08/15 03:52:11;;;;;;;11.93;10.67;;;;;;;;;;5047041;28;20289;-72
2022/08/15 03:54:40;;;;;;;12.93;11.63;;;;;;;;;;5053006;28;20247;-72
2022/08/15 03:57:14;;;;;;;14.37;11.80;;;;;;;;;;5037125;28;21010;-72
2022/08/15 03:59:59;;;;;;;13.60;11.90;;;;;;;;;;5070444;28;20677;-72
2022/08/15 04:02:29;;;;;;;14.30;11.37;;;;;;;;;;5058518;28;20225;-72
2022/08/15 04:04:58;;;;;;;12.43;10.47;;;;;;;;;;5068959;28;20222;-72
2022/08/15 04:07:32;;;;;;;12.20;10.67;;;;;;;;;;5069099;28;20205;-72
2022/08/15 04:10:16;;;;;;;13.67;10.73;;;;;;;;;;5068909;28;20182;-72
2022/08/15 04:13:04;;;;;;;13.53;11.33;;;;;;;;;;5051058;28;20190;-73
2022/08/15 04:15:34;;;;;;;14.63;12.17;;;;;;;;;;5062038;28;20309;-72
2022/08/15 04:18:03;;;;;;;17.70;14.27;;;;;;;;;;5052258;28;20679;-72
2022/08/15 04:20:51;;;;;;;20.33;14.90;;;;;;;;;;5050552;28;20591;-72
2022/08/15 04:23:37;;;;;;;19.03;15.33;;;;;;;;;;5068561;28;20761;-72
2022/08/15 04:26:04;;;;;;;19.07;15.13;;;;;;;;;;5052200;28;20281;-72
2022/08/15 04:28:34;;;;;;;17.80;14.80;;;;;;;;;;5061573;28;20200;-72
2022/08/15 04:31:21;;;;;;;19.33;15.10;;;;;;;;;;5068894;28;20991;-72
2022/08/15 04:34:06;;;;;;;14.77;12.73;;;;;;;;;;5060678;28;20178;-72
2022/08/15 04:36:53;;;;;;;20.07;11.40;;;;;;;;;;5054560;28;20190;-72
2022/08/15 04:39:24;;;;;;;11.30;9.00;;;;;;;;;;5068682;28;20259;-72
2022/08/15 04:42:05;;;;;;;13.77;9.33;;;;;;;;;;5068530;28;20557;-71
2022/08/15 04:44:51;;;;;;;12.57;9.40;;;;;;;;;;5063566;28;20225;-72
2022/08/15 04:47:19;;;;;;;10.37;9.13;;;;;;;;;;5068476;28;20202;-71
2022/08/15 04:49:49;;;;;;;11.20;9.70;;;;;;;;;;5062845;28;20190;-71
2022/08/15 04:52:17;;;;;;;11.13;9.37;;;;;;;;;;5051902;28;20197;-72
2022/08/15 04:54:58;;;;;;;10.60;8.43;;;;;;;;;;5014449;28;20204;-68
2022/08/15 04:58:13;;;;;;;10.30;9.17;;;;;;;;;;5069226;28;20756;-72
2022/08/15 05:01:10;;;;;;;9.93;8.93;;;;;;;;;;5041639;28;20649;-68
2022/08/15 05:04:29;;;;;;;11.87;10.07;;;;;;;;;;5050572;28;20224;-68
2022/08/15 05:07:44;;;;;;;12.33;10.47;;;;;;;;;;5055504;28;20209;-69
2022/08/15 05:10:31;;;;;;;13.60;11.33;;;;;;;;;;5043155;28;20271;-70
2022/08/15 05:13:17;;;;;;;15.93;13.93;;;;;;;;;;5047629;28;20210;-72
2022/08/15 05:15:45;;;;;;;17.17;13.10;;;;;;;;;;5029529;28;21021;-71
2022/08/15 05:18:23;;;;;;;17.87;14.80;;;;;;;;;;5045966;28;20209;-71
2022/08/15 05:20:50;;;;;;;17.53;15.13;;;;;;;;;;5064555;28;20202;-73
2022/08/15 05:24:39;;;;;;;17.93;15.47;;;;;;;;;;4962738;28;20225;-73
2022/08/15 05:31:21;;;;;;;18.93;14.80;;;;;;;;;;4902302;29;20208;-70
2022/08/15 05:34:36;;;;;;;17.13;13.77;;;;;;;;;;4883053;29;20211;-71
2022/08/15 05:38:25;;;;;;;18.50;14.13;;;;;;;;;;4896929;29;20234;-73
2022/08/15 05:42:19;;;;;;;16.10;14.37;;;;;;;;;;4894512;28;20278;-72
2022/08/15 05:45:16;;;;;;;16.00;14.30;;;;;;;;;;4948905;28;20229;-70
2022/08/15 05:48:39;;;;;;;14.63;12.23;;;;;;;;;;4912384;28;20230;-70
2022/08/15 05:51:57;;;;;;;17.40;13.30;;;;;;;;;;4922844;29;20276;-72
2022/08/15 05:54:47;;;;;;;16.90;12.63;;;;;;;;;;4929167;28;20210;-71
2022/08/15 05:57:18;;;;;;;17.20;12.57;;;;;;;;;;4972751;28;20205;-67
2022/08/15 05:59:50;;;;;;;17.33;12.07;;;;;;;;;;5002893;28;20215;-73
2022/08/15 06:06:30;;;;;;;17.33;12.27;;;;;;;;;;5005176;28;20281;-70
2022/08/15 06:09:32;;;;;;;17.37;12.37;;;;;;;;;;5001643;28;20210;-70
2022/08/15 06:12:44;;;;;;;12.63;11.23;;;;;;;;;;4999692;28;20273;-70
2022/08/15 06:15:24;;;;;;;14.90;12.17;;;;;;;;;;4979503;28;20215;-70
2022/08/15 06:18:15;;;;;;;14.43;11.43;;;;;;;;;;4976492;28;20220;-71
2022/08/15 06:21:26;;;;;;;14.20;11.33;;;;;;;;;;5008209;28;20240;-70
2022/08/15 06:24:11;;;;;;;15.63;12.10;;;;;;;;;;5030487;28;20211;-70
2022/08/15 06:26:57;;;;;;;18.03;12.43;;;;;;;;;;5016209;28;20690;-72
2022/08/15 06:29:44;;;;;;;13.47;11.87;;;;;;;;;;4991551;28;20221;-72
2022/08/15 06:32:42;;;;;;;15.87;13.80;;;;;;;;;;5018447;28;20203;-72
2022/08/15 06:35:36;;;;;;;21.37;17.10;;;;;;;;;;4995910;28;20347;-72
2022/08/15 06:38:14;;;;;;;14.93;12.60;;;;;;;;;;5004052;28;21077;-70
2022/08/15 06:41:22;;;;;;;14.17;12.53;;;;;;;;;;5025381;28;20237;-73
2022/08/15 06:43:53;;;;;;;22.90;17.00;;;;;;;;;;5037480;28;20256;-70
2022/08/15 06:46:30;;;;;;;19.27;15.20;;;;;;;;;;5028341;28;20302;-72
2022/08/15 06:49:19;;;;;;;17.43;12.43;;;;;;;;;;5023495;28;20202;-72
2022/08/15 06:52:05;;;;;;;16.17;13.47;;;;;;;;;;4998003;28;20292;-72
2022/08/15 06:54:37;;;;;;;17.90;14.93;;;;;;;;;;5023606;28;20218;-72
2022/08/15 06:57:27;;;;;;;17.00;13.13;;;;;;;;;;5015602;28;20233;-73
2022/08/15 07:00:15;;;;;;;13.07;11.50;;;;;;;;;;5017311;28;20194;-71
2022/08/15 07:03:36;;;;;;;14.53;11.53;;;;;;;;;;5038271;28;20230;-71
2022/08/15 07:06:16;;;;;;;14.20;11.17;;;;;;;;;;5020773;28;20188;-72
2022/08/15 07:08:55;;;;;;;14.23;11.57;;;;;;;;;;5029260;28;20203;-71
2022/08/15 07:11:30;;;;;;;13.57;12.03;;;;;;;;;;5029594;28;20250;-74
2022/08/15 07:14:09;;;;;;;14.40;10.93;;;;;;;;;;5003427;28;20863;-71
2022/08/15 07:17:01;;;;;;;14.60;11.10;;;;;;;;;;5041538;28;20226;-70
2022/08/15 07:19:29;;;;;;;14.97;12.10;;;;;;;;;;5028565;28;20193;-70
2022/08/15 07:22:13;;;;;;;12.93;10.77;;;;;;;;;;5013284;28;20266;-70
2022/08/15 07:24:52;;;;;;;13.50;10.60;;;;;;;;;;5020894;28;20222;-73
2022/08/15 07:27:28;;;;;;;11.90;10.80;;;;;;;;;;5032413;28;20235;-71
2022/08/15 07:29:59;;;;;;;13.17;10.83;;;;;;;;;;5000164;28;20681;-70
2022/08/15 07:32:36;;;;;;;11.07;9.97;;;;;;;;;;5042789;28;20524;-71
2022/08/15 07:35:29;;;;;;;11.30;10.00;;;;;;;;;;5039807;28;20185;-71
2022/08/15 07:37:58;;;;;;;13.53;10.80;;;;;;;;;;5028692;28;20199;-73
2022/08/15 07:40:47;;;;;;;14.17;10.47;;;;;;;;;;5045196;28;20190;-73
2022/08/15 07:43:30;;;;;;;12.87;10.97;;;;;;;;;;5018130;28;20195;-74
2022/08/15 07:46:10;;;;;;;11.87;10.60;;;;;;;;;;5015809;28;20214;-73
2022/08/15 07:48:53;;;;;;;12.03;10.80;;;;;;;;;;5025382;28;20195;-73
2022/08/15 07:51:27;;;;;;;10.80;9.80;;;;;;;;;;5015524;28;20670;-73
2022/08/15 07:54:30;;;;;;;13.00;10.53;;;;;;;;;;5017817;28;20198;-71
2022/08/15 07:57:19;;;;;;;11.80;10.57;;;;;;;;;;5050375;28;20182;-72
2022/08/15 08:00:11;;;;;;;13.10;10.87;;;;;;;;;;5029307;28;20198;-73
2022/08/15 08:03:05;;;;;;;11.80;10.60;;;;;;;;;;5027885;28;20598;-73
2022/08/15 08:05:57;;;;;;;11.47;10.30;;;;;;;;;;5042516;28;20248;-72
2022/08/15 08:08:47;;;;;;;11.90;9.67;;;;;;;;;;5064554;28;20197;-72
2022/08/15 08:11:21;;;;;;;12.27;10.60;;;;;;;;;;5051990;28;20191;-72
2022/08/15 08:14:10;;;;;;;12.93;10.60;;;;;;;;;;5023892;28;20178;-73
2022/08/15 08:17:03;;;;;;;12.13;9.97;;;;;;;;;;5048111;28;20189;-75
2022/08/15 08:19:44;;;;;;;12.97;10.27;;;;;;;;;;5041922;28;21043;-73
2022/08/15 08:22:28;;;;;;;12.00;10.80;;;;;;;;;;5063649;28;20178;-74
2022/08/15 08:25:00;;;;;;;11.37;10.17;;;;;;;;;;5034986;28;20214;-74
2022/08/15 08:27:36;;;;;;;11.00;9.77;;;;;;;;;;5046529;28;20252;-74
2022/08/15 08:30:25;;;;;;;10.33;9.27;;;;;;;;;;5051895;28;20298;-73
2022/08/15 08:33:17;;;;;;;12.30;9.83;;;;;;;;;;5066223;28;20217;-73
2022/08/15 08:36:00;;;;;;;11.53;9.60;;;;;;;;;;5048462;28;20193;-73
2022/08/15 08:39:07;;;;;;;12.63;9.70;;;;;;;;;;5062010;28;20193;-73
2022/08/15 08:41:36;;;;;;;11.07;10.03;;;;;;;;;;5065162;28;20190;-73
2022/08/15 08:44:16;;;;;;;12.07;9.93;;;;;;;;;;5045041;28;20294;-74
2022/08/15 08:46:54;;;;;;;11.53;9.70;;;;;;;;;;5050672;28;20182;-73
2022/08/15 08:49:48;;;;;;;11.33;10.03;;;;;;;;;;5068568;28;20212;-73
2022/08/15 08:52:47;;;;;;;11.07;9.97;;;;;;;;;;5036904;28;20571;-75
2022/08/15 08:55:28;;;;;;;12.10;9.37;;;;;;;;;;5049651;28;20204;-74
2022/08/15 08:58:12;;;;;;;11.60;10.23;;;;;;;;;;5069088;28;20280;-75
2022/08/15 09:01:03;;;;;;;11.43;10.23;;;;;;;;;;5035730;28;20688;-75
2022/08/15 09:03:37;;;;;;;12.93;9.87;;;;;;;;;;5056427;28;20308;-75
2022/08/15 09:06:10;;;;;;;10.10;9.03;;;;;;;;;;5030884;28;20192;-75
2022/08/15 09:09:08;;;;;;;11.77;9.67;;;;;;;;;;5043074;28;20677;-74
2022/08/15 09:11:35;;;;;;;10.93;9.60;;;;;;;;;;5057485;28;20197;-75
2022/08/15 09:14:24;;;;;;;10.10;9.10;;;;;;;;;;5049878;28;20210;-75
2022/08/15 09:17:06;;;;;;;14.03;9.43;;;;;;;;;;5052340;28;20186;-74
2022/08/15 09:20:13;;;;;;;9.73;8.83;;;;;;;;;;5042396;28;20645;-74
2022/08/15 09:22:48;;;;;;;13.70;9.27;;;;;;;;;;5047093;28;20670;-76
2022/08/15 09:25:19;;;;;;;10.20;8.70;;;;;;;;;;5049114;28;20233;-74
2022/08/15 09:27:56;;;;;;;10.70;9.27;;;;;;;;;;5050227;28;20255;-71
2022/08/15 09:30:25;;;;;;;9.63;8.57;;;;;;;;;;5064896;28;20691;-74
2022/08/15 09:33:50;;;;;;;10.00;9.00;;;;;;;;;;5042794;28;20225;-76
2022/08/15 09:36:31;;;;;;;11.23;8.90;;;;;;;;;;5023995;28;20211;-78
2022/08/15 09:39:02;;;;;;;10.40;9.27;;;;;;;;;;5009726;28;20195;-78
2022/08/15 09:41:33;;;;;;;10.47;9.37;;;;;;;;;;5026128;28;20594;-77
2022/08/15 09:44:09;;;;;;;10.57;9.23;;;;;;;;;;4976905;28;20218;-72
2022/08/15 09:47:00;;;;;;;11.13;9.23;;;;;;;;;;5003997;28;20278;-74
2022/08/15 09:49:40;;;;;;;9.70;8.83;;;;;;;;;;5011472;28;20196;-72
2022/08/15 09:52:10;;;;;;;10.47;9.47;;;;;;;;;;5004273;28;20211;-73
2022/08/15 09:55:01;;;;;;;11.97;8.97;;;;;;;;;;5014280;28;20226;-73
2022/08/15 09:57:28;;;;;;;10.80;9.70;;;;;;;;;;4986625;28;20278;-73
2022/08/15 09:59:58;;;;;;;10.20;9.20;;;;;;;;;;5005504;28;20199;-75
2022/08/15 10:02:37;;;;;;;11.57;9.90;;;;;;;;;;5006874;28;20202;-74
2022/08/15 10:05:21;;;;;;;11.97;10.57;;;;;;;;;;5000768;28;20388;-75
2022/08/15 10:07:51;;;;;;;11.70;10.50;;;;;;;;;;5018679;28;20210;-75
2022/08/15 10:10:19;;;;;;;11.43;10.23;;;;;;;;;;5039492;28;20183;-77
2022/08/15 10:13:05;;;;;;;11.07;9.97;;;;;;;;;;5056181;28;20761;-76
2022/08/15 10:15:45;;;;;;;11.23;10.33;;;;;;;;;;5037361;28;20285;-71
2022/08/15 10:18:26;;;;;;;14.37;10.53;;;;;;;;;;5047390;28;20190;-76
2022/08/15 10:20:56;;;;;;;12.13;11.00;;;;;;;;;;5035298;28;20438;-74
2022/08/15 10:23:26;;;;;;;12.63;11.53;;;;;;;;;;5055373;28;20194;-74
2022/08/15 10:26:13;;;;;;;11.63;10.50;;;;;;;;;;5036277;28;20802;-73
2022/08/15 10:29:09;;;;;;;11.60;10.47;;;;;;;;;;5026482;28;20210;-71
2022/08/15 10:31:57;;;;;;;11.43;10.27;;;;;;;;;;5048070;28;20283;-72
2022/08/15 10:35:03;;;;;;;10.70;9.70;;;;;;;;;;5056446;28;20645;-74
2022/08/15 10:37:51;;;;;;;14.23;10.50;;;;;;;;;;5056116;28;20506;-74
2022/08/15 10:40:42;;;;;;;12.87;9.97;;;;;;;;;;5051382;28;20217;-73
2022/08/15 10:44:02;;;;;;;11.37;10.23;;;;;;;;;;5037011;28;20320;-73
2022/08/15 10:46:38;;;;;;;11.73;10.27;;;;;;;;;;4966500;28;20336;-73
2022/08/15 10:49:23;;;;;;;11.50;10.20;;;;;;;;;;5038444;28;20208;-71
2022/08/15 10:52:01;;;;;;;11.30;10.20;;;;;;;;;;5042009;28;20230;-70
2022/08/15 10:54:36;;;;;;;12.73;11.03;;;;;;;;;;5051198;28;20189;-72
2022/08/15 10:57:04;;;;;;;16.20;10.57;;;;;;;;;;5039833;28;20653;-71
2022/08/15 10:59:35;;;;;;;12.57;10.67;;;;;;;;;;5056681;28;21803;-72
2022/08/15 11:02:18;;;;;;;11.43;10.33;;;;;;;;;;5036646;28;20692;-69
2022/08/15 11:05:14;;;;;;;11.50;10.33;;;;;;;;;;5034927;28;20229;-71
2022/08/15 11:07:49;;;;;;;10.90;10.00;;;;;;;;;;5029076;28;20252;-72
2022/08/15 11:10:25;;;;;;;14.13;10.77;;;;;;;;;;5036839;28;20297;-71
2022/08/15 11:12:54;;;;;;;11.50;10.40;;;;;;;;;;5057792;28;20188;-71
2022/08/15 11:15:24;;;;;;;10.87;9.57;;;;;;;;;;5059447;28;20190;-71
2022/08/15 11:18:00;;;;;;;11.83;10.07;;;;;;;;;;5023428;28;20207;-69
2022/08/15 11:20:52;;;;;;;12.17;10.90;;;;;;;;;;5055123;28;20186;-72
2022/08/15 11:23:47;;;;;;;11.83;10.47;;;;;;;;;;5056715;28;20201;-69
2022/08/15 11:26:22;;;;;;;11.50;10.13;;;;;;;;;;5037216;28;20480;-72
2022/08/15 11:29:24;;;;;;;12.83;10.83;;;;;;;;;;5034462;28;20667;-72
2022/08/15 11:32:32;;;;;;;12.37;11.03;;;;;;;;;;5053208;28;20649;-72
2022/08/15 11:35:01;;;;;;;13.07;10.07;;;;;;;;;;5030920;28;20221;-71
2022/08/15 11:37:30;;;;;;;17.23;10.73;;;;;;;;;;5050928;28;20236;-72
2022/08/15 11:40:16;;;;;;;18.73;11.40;;;;;;;;;;5036277;28;20190;-69
2022/08/15 11:43:18;;;;;;;18.67;11.77;;;;;;;;;;5036833;28;20699;-74
2022/08/15 11:45:48;;;;;;;18.40;12.00;;;;;;;;;;5032140;28;20214;-71
2022/08/15 11:48:39;;;;;;;18.20;11.33;;;;;;;;;;5029550;28;20261;-70
2022/08/15 11:51:10;;;;;;;12.27;11.00;;;;;;;;;;5055522;28;20250;-72
2022/08/15 11:54:07;;;;;;;11.63;10.53;;;;;;;;;;5037248;28;20190;-71
2022/08/15 11:57:05;;;;;;;13.67;10.90;;;;;;;;;;5038260;28;20205;-74
2022/08/15 12:00:24;;;;;;;12.70;11.10;;;;;;;;;;5038041;28;20247;-75
2022/08/15 12:06:12;;;;;;;12.80;10.63;;;;;;;;;;5033105;28;20350;-72
2022/08/15 12:09:13;;;;;;;12.37;11.20;;;;;;;;;;5035410;28;20249;-72
2022/08/15 12:11:42;;;;;;;13.83;10.57;;;;;;;;;;5039253;28;20206;-73
2022/08/15 12:14:19;;;;;;;11.67;10.47;;;;;;;;;;5024331;28;20198;-72
2022/08/15 12:16:55;;;;;;;11.57;10.53;;;;;;;;;;5022664;28;20186;-73
2022/08/15 12:19:34;;;;;;;13.17;10.77;;;;;;;;;;5038424;28;20201;-73
2022/08/15 12:22:48;;;;;;;12.73;10.60;;;;;;;;;;5021545;28;20175;-73
2022/08/15 12:25:27;;;;;;;11.30;10.13;;;;;;;;;;5016357;28;20231;-72
2022/08/15 12:28:16;;;;;;;12.33;10.83;;;;;;;;;;5019378;28;20195;-74
2022/08/15 12:31:22;;;;;;;12.90;10.70;;;;;;;;;;5008973;28;20288;-74
2022/08/15 12:34:00;;;;;;;12.90;11.50;;;;;;;;;;5037768;28;20520;-69
2022/08/15 12:37:01;;;;;;;12.07;10.93;;;;;;;;;;5026272;28;20202;-70
2022/08/15 12:39:47;;;;;;;14.17;11.10;;;;;;;;;;5013620;28;20360;-69
2022/08/15 12:42:49;;;;;;;11.53;10.33;;;;;;;;;;4996444;28;20974;-68
2022/08/15 12:45:50;;;;;;;11.87;10.67;;;;;;;;;;5015946;28;20230;-73
2022/08/15 12:48:27;;;;;;;13.17;10.90;;;;;;;;;;5009258;28;20204;-76
2022/08/15 12:51:02;;;;;;;12.17;10.80;;;;;;;;;;5020754;28;20197;-76
2022/08/15 12:53:30;;;;;;;13.23;10.70;;;;;;;;;;5037024;28;20194;-71
2022/08/15 12:55:58;;;;;;;11.60;10.47;;;;;;;;;;5038102;28;20206;-69
2022/08/15 12:58:25;;;;;;;14.20;10.00;;;;;;;;;;5027062;28;20222;-68
2022/08/15 13:00:54;;;;;;;11.83;10.60;;;;;;;;;;5028584;28;20194;-68
2022/08/15 13:03:42;;;;;;;11.20;9.53;;;;;;;;;;5028699;28;20279;-70
2022/08/15 13:06:29;;;;;;;11.33;10.23;;;;;;;;;;5008870;28;20261;-70
2022/08/15 13:09:05;;;;;;;10.90;9.83;;;;;;;;;;5040084;28;20213;-72
2022/08/15 13:11:33;;;;;;;10.23;9.23;;;;;;;;;;5055904;28;20305;-69
2022/08/15 13:14:02;;;;;;;11.07;9.73;;;;;;;;;;5057418;28;20190;-70
2022/08/15 13:16:30;;;;;;;10.77;9.50;;;;;;;;;;5056116;28;20248;-69
2022/08/15 13:19:22;;;;;;;10.53;9.50;;;;;;;;;;5043451;28;20556;-69
2022/08/15 13:24:55;;;;;;;10.47;9.47;;;;;;;;;;5053677;28;20185;-69
2022/08/15 13:27:23;;;;;;;10.37;9.20;;;;;;;;;;5040853;28;20195;-69
2022/08/15 13:30:20;;;;;;;10.33;9.33;;;;;;;;;;5039352;28;20198;-73
2022/08/15 13:33:26;;;;;;;11.27;10.03;;;;;;;;;;5057517;28;20655;-72
2022/08/15 13:37:08;;;;;;;14.07;10.00;;;;;;;;;;5056085;28;20262;-72
2022/08/15 13:40:25;;;;;;;12.07;10.03;;;;;;;;;;5066285;28;20280;-72
2022/08/15 13:42:59;;;;;;;11.30;10.10;;;;;;;;;;5040079;28;20202;-74
2022/08/15 13:45:38;;;;;;;11.03;9.80;;;;;;;;;;5050923;28;20561;-73
2022/08/15 13:48:26;;;;;;;12.03;10.33;;;;;;;;;;5066689;28;20285;-75
2022/08/15 13:51:06;;;;;;;12.03;9.60;;;;;;;;;;5050286;28;20272;-73
2022/08/15 13:53:37;;;;;;;10.30;8.80;;;;;;;;;;5046573;28;20228;-69
2022/08/15 13:56:21;;;;;;;11.60;9.13;;;;;;;;;;5045499;28;20170;-71
2022/08/15 13:58:58;;;;;;;10.20;9.20;;;;;;;;;;5045215;28;20189;-74
2022/08/15 14:01:25;;;;;;;10.40;9.30;;;;;;;;;;5034601;28;20204;-71
2022/08/15 14:04:05;;;;;;;10.27;9.20;;;;;;;;;;5069880;28;20229;-70
2022/08/15 14:06:38;;;;;;;10.43;9.30;;;;;;;;;;5067293;28;20267;-69
2022/08/15 14:09:05;;;;;;;10.93;9.83;;;;;;;;;;5049034;28;20276;-71
2022/08/15 14:11:46;;;;;;;10.53;9.53;;;;;;;;;;5042309;28;20192;-71
2022/08/15 14:14:23;;;;;;;10.70;9.50;;;;;;;;;;5061726;28;20640;-73
2022/08/15 14:17:02;;;;;;;10.77;9.77;;;;;;;;;;5044658;28;20218;-73
2022/08/15 14:19:48;;;;;;;12.73;8.73;;;;;;;;;;5050907;28;20182;-71
2022/08/15 14:22:28;;;;;;;9.20;7.13;;;;;;;;;;5061112;28;20194;-72
2022/08/15 14:24:58;;;;;;;12.30;7.50;;;;;;;;;;5065138;28;20199;-72
2022/08/15 14:27:45;;;;;;;7.00;5.70;;;;;;;;;;5050134;28;20218;-73
2022/08/15 14:30:31;;;;;;;10.37;6.90;;;;;;;;;;5053422;28;20989;-72
2022/08/15 14:33:19;;;;;;;7.73;6.93;;;;;;;;;;5061200;28;20558;-70
2022/08/15 14:36:04;;;;;;;10.00;6.80;;;;;;;;;;5058398;28;20178;-72
2022/08/15 14:38:51;;;;;;;7.53;6.60;;;;;;;;;;5051102;28;20197;-70
2022/08/15 14:41:18;;;;;;;7.80;7.00;;;;;;;;;;5055873;28;20546;-72
2022/08/15 14:43:47;;;;;;;7.67;6.17;;;;;;;;;;5053629;28;20223;-69
2022/08/15 14:46:20;;;;;;;7.80;6.40;;;;;;;;;;5052012;28;20734;-70
2022/08/15 14:49:03;;;;;;;6.80;5.97;;;;;;;;;;5050912;28;20197;-71
2022/08/15 14:51:34;;;;;;;7.13;6.43;;;;;;;;;;5054093;28;20193;-70
2022/08/15 14:54:21;;;;;;;7.57;5.90;;;;;;;;;;5053067;28;20758;-70
2022/08/15 14:57:08;;;;;;;7.67;6.87;;;;;;;;;;5070116;28;20191;-70
2022/08/15 14:59:53;;;;;;;10.10;6.50;;;;;;;;;;5071196;28;20189;-72
2022/08/15 15:02:33;;;;;;;9.00;6.60;;;;;;;;;;5047412;28;20658;-70
2022/08/15 15:05:05;;;;;;;8.83;7.33;;;;;;;;;;5043741;28;20227;-69
2022/08/15 15:07:33;;;;;;;9.83;7.37;;;;;;;;;;5050469;28;20194;-73
2022/08/15 15:10:20;;;;;;;8.07;7.27;;;;;;;;;;5063286;28;20201;-72
2022/08/15 15:12:53;;;;;;;8.00;7.20;;;;;;;;;;5059378;28;20209;-72
2022/08/15 15:15:19;;;;;;;9.00;7.47;;;;;;;;;;5051800;28;20202;-71
2022/08/15 15:17:47;;;;;;;9.60;8.30;;;;;;;;;;5048329;28;20205;-72
2022/08/15 15:20:15;;;;;;;9.50;7.73;;;;;;;;;;5056053;28;20210;-73
2022/08/15 15:23:00;;;;;;;10.70;8.03;;;;;;;;;;5030178;28;20234;-73
2022/08/15 15:25:27;;;;;;;9.10;8.17;;;;;;;;;;5052773;28;20237;-68
2022/08/15 15:28:13;;;;;;;9.93;8.30;;;;;;;;;;5056140;28;20170;-74
2022/08/15 15:31:00;;;;;;;10.03;8.00;;;;;;;;;;5038996;28;20186;-68
2022/08/15 15:33:28;;;;;;;9.73;8.73;;;;;;;;;;5056397;28;20193;-74
2022/08/15 15:36:00;;;;;;;10.33;8.33;;;;;;;;;;5056677;28;20210;-76
2022/08/15 15:38:29;;;;;;;9.73;8.57;;;;;;;;;;5024826;28;20218;-72
2022/08/15 15:41:03;;;;;;;12.27;9.97;;;;;;;;;;5063185;28;20300;-73
2022/08/15 15:43:31;;;;;;;13.93;10.40;;;;;;;;;;5048517;28;20194;-73
2022/08/15 15:46:07;;;;;;;11.30;10.20;;;;;;;;;;5048698;28;20261;-72
2022/08/15 15:48:35;;;;;;;11.17;9.43;;;;;;;;;;5040481;28;20253;-69
2022/08/15 15:51:11;;;;;;;9.80;8.23;;;;;;;;;;5051626;28;20264;-72
2022/08/15 15:53:39;;;;;;;11.30;8.50;;;;;;;;;;5046885;28;20567;-70
2022/08/15 15:56:07;;;;;;;9.23;8.20;;;;;;;;;;5038827;28;20194;-71
2022/08/15 15:58:54;;;;;;;10.63;8.30;;;;;;;;;;5033188;28;20196;-70
2022/08/15 16:01:33;;;;;;;13.30;8.40;;;;;;;;;;5035804;28;20213;-72
2022/08/15 16:04:21;;;;;;;10.73;8.60;;;;;;;;;;5054573;28;20226;-72